Time;durP1;ratioP1;P1;durP2;ratioP2;P2;SDS_P1;SDS_P2;PMS_P1;PMS_P2;Temp;Humidity;BMP_temperature;BMP_pressure;BME280_temperature;BME280_humidity;BME280_pressure;Samples;Min_cycle;Max_cycle;Signal;HPM_P1;HPM_P2
2021/01/29 00:00:20;;;;;;;16.97;8.93;;;6.10;97.70;;;;;;5093515;28;20666;-80
2021/01/29 00:02:45;;;;;;;15.57;9.35;;;6.10;97.70;;;;;;5094409;28;20039;-81
2021/01/29 00:05:12;;;;;;;15.37;9.03;;;6.20;97.70;;;;;;5093853;28;20484;-81
2021/01/29 00:07:39;;;;;;;18.07;10.00;;;6.20;97.80;;;;;;5093929;28;20032;-80
2021/01/29 00:10:05;;;;;;;16.57;9.10;;;6.20;97.90;;;;;;5091753;28;20036;-81
2021/01/29 00:12:31;;;;;;;16.07;8.93;;;6.20;98.00;;;;;;5093590;28;20032;-81
2021/01/29 00:14:57;;;;;;;16.37;9.43;;;6.20;97.90;;;;;;5093857;28;20078;-80
2021/01/29 00:17:22;;;;;;;16.60;9.20;;;6.20;97.90;;;;;;5093731;28;20027;-81
2021/01/29 00:19:48;;;;;;;16.60;9.77;;;6.20;97.90;;;;;;5093037;28;20060;-81
2021/01/29 00:22:13;;;;;;;20.90;10.77;;;6.30;98.00;;;;;;5093343;28;20024;-80
2021/01/29 00:24:39;;;;;;;19.60;10.30;;;6.30;98.10;;;;;;5093498;28;20039;-80
2021/01/29 00:27:05;;;;;;;17.67;9.97;;;6.30;98.30;;;;;;5093808;28;20383;-81
2021/01/29 00:29:32;;;;;;;16.23;10.27;;;6.30;98.30;;;;;;5092868;28;20028;-82
2021/01/29 00:31:58;;;;;;;18.77;10.30;;;6.30;98.20;;;;;;5094063;28;20533;-82
2021/01/29 00:34:24;;;;;;;19.80;10.57;;;6.30;98.20;;;;;;5094656;28;20116;-82
2021/01/29 00:36:50;;;;;;;20.90;10.53;;;6.30;98.20;;;;;;5092694;28;20031;-82
2021/01/29 00:39:16;;;;;;;19.10;11.17;;;6.30;98.30;;;;;;5093295;28;20028;-82
2021/01/29 00:41:41;;;;;;;23.17;11.67;;;6.40;98.30;;;;;;5092230;28;20021;-82
2021/01/29 00:44:07;;;;;;;22.70;10.27;;;6.40;98.70;;;;;;5092588;28;20389;-82
2021/01/29 00:46:33;;;;;;;20.73;10.53;;;6.40;98.70;;;;;;5093836;28;20110;-82
2021/01/29 00:48:58;;;;;;;17.97;10.30;;;6.40;98.70;;;;;;5093386;28;20024;-82
2021/01/29 00:51:24;;;;;;;20.13;10.73;;;6.40;98.70;;;;;;5092949;28;20362;-82
2021/01/29 00:53:50;;;;;;;18.87;11.10;;;6.40;98.60;;;;;;5094031;28;20114;-82
2021/01/29 00:56:15;;;;;;;20.80;11.00;;;6.50;98.60;;;;;;5093428;28;20062;-82
2021/01/29 00:58:41;;;;;;;21.00;11.20;;;6.50;98.60;;;;;;5093555;28;20537;-82
2021/01/29 01:01:06;;;;;;;18.77;10.13;;;6.50;98.60;;;;;;5093493;28;20020;-82
2021/01/29 01:03:32;;;;;;;21.13;10.47;;;6.50;98.60;;;;;;5093684;28;20055;-82
2021/01/29 01:05:58;;;;;;;21.10;10.33;;;6.50;98.60;;;;;;5093710;28;20020;-82
2021/01/29 01:08:25;;;;;;;18.57;10.10;;;6.50;98.60;;;;;;5093732;28;20028;-82
2021/01/29 01:10:51;;;;;;;21.50;10.50;;;6.50;98.70;;;;;;5093135;28;20057;-82
2021/01/29 01:13:16;;;;;;;17.90;9.97;;;6.50;98.70;;;;;;5093701;28;20024;-82
2021/01/29 01:15:42;;;;;;;19.67;10.13;;;6.50;98.70;;;;;;5092154;28;20035;-82
2021/01/29 01:18:08;;;;;;;17.43;9.87;;;6.50;98.70;;;;;;5092374;28;20069;-82
2021/01/29 01:20:34;;;;;;;20.60;9.90;;;6.60;98.70;;;;;;5093324;28;20023;-82
2021/01/29 01:23:00;;;;;;;22.93;10.00;;;6.60;98.70;;;;;;5093453;28;20020;-82
2021/01/29 01:25:27;;;;;;;24.67;10.30;;;6.60;98.70;;;;;;5092453;28;20024;-82
2021/01/29 01:27:53;;;;;;;21.70;10.53;;;6.60;98.80;;;;;;5093584;28;20024;-82
2021/01/29 01:30:29;;;;;;;22.47;10.17;;;6.60;98.80;;;;;;5092927;28;20028;-82
2021/01/29 01:32:55;;;;;;;20.53;10.10;;;6.60;98.80;;;;;;5092994;28;20050;-82
2021/01/29 01:35:21;;;;;;;20.37;10.00;;;6.60;98.80;;;;;;5093077;28;20434;-82
2021/01/29 01:37:48;;;;;;;20.20;9.90;;;6.60;98.80;;;;;;5093378;28;20024;-82
2021/01/29 01:40:15;;;;;;;19.30;9.57;;;6.60;98.90;;;;;;5092928;28;20024;-82
2021/01/29 01:42:41;;;;;;;20.20;10.20;;;6.70;99.00;;;;;;5093851;28;20017;-82
2021/01/29 01:45:28;;;;;;;20.97;9.27;;;6.70;99.10;;;;;;5093182;28;20020;-83
2021/01/29 01:48:03;;;;;;;19.67;9.50;;;6.70;99.10;;;;;;5093423;28;20020;-82
2021/01/29 01:50:38;;;;;;;19.40;9.13;;;6.70;99.20;;;;;;5092662;28;20024;-82
2021/01/29 01:53:26;;;;;;;24.17;9.83;;;6.70;99.20;;;;;;5092592;28;20032;-82
2021/01/29 01:56:16;;;;;;;21.97;9.63;;;6.70;99.20;;;;;;5092107;28;20044;-82
2021/01/29 01:58:47;;;;;;;22.97;9.77;;;6.80;99.30;;;;;;5085230;28;20507;-82
2021/01/29 02:01:13;;;;;;;23.33;9.77;;;6.80;99.40;;;;;;5092946;28;20016;-82
2021/01/29 02:03:39;;;;;;;28.77;9.90;;;6.80;99.50;;;;;;5093017;28;20028;-83
2021/01/29 02:06:06;;;;;;;27.37;10.23;;;6.80;99.50;;;;;;5092898;28;20031;-82
2021/01/29 02:08:36;;;;;;;24.37;10.00;;;6.80;99.60;;;;;;5092557;28;20094;-82
2021/01/29 02:11:02;;;;;;;25.53;10.30;;;6.80;99.60;;;;;;5092113;28;20043;-82
2021/01/29 02:13:28;;;;;;;30.60;10.50;;;6.80;99.60;;;;;;5092862;28;20464;-82
2021/01/29 02:15:59;;;;;;;34.00;11.30;;;6.80;99.60;;;;;;5092347;28;20032;-83
2021/01/29 02:18:43;;;;;;;31.60;11.47;;;6.90;99.70;;;;;;5108505;28;20477;-82
2021/01/29 02:21:27;;;;;;;27.73;10.53;;;6.90;99.80;;;;;;5092118;28;20020;-82
2021/01/29 02:24:04;;;;;;;25.33;10.37;;;6.90;99.80;;;;;;5092949;28;20059;-82
2021/01/29 02:26:38;;;;;;;29.43;10.33;;;6.90;99.90;;;;;;5094220;28;20541;-82
2021/01/29 02:29:28;;;;;;;27.77;10.23;;;6.90;99.80;;;;;;5096015;28;20020;-82
2021/01/29 02:32:15;;;;;;;24.90;10.20;;;6.90;99.90;;;;;;5097152;28;20048;-82
2021/01/29 02:35:18;;;;;;;25.13;11.23;;;6.90;99.90;;;;;;5096559;28;20028;-82
2021/01/29 02:38:15;;;;;;;24.23;10.80;;;7.00;99.90;;;;;;5095947;28;20465;-81
2021/01/29 02:40:43;;;;;;;29.37;10.57;;;7.00;99.90;;;;;;5096130;28;20052;-82
2021/01/29 02:43:25;;;;;;;25.98;10.45;;;7.00;99.90;;;;;;5096012;28;20419;-82
2021/01/29 02:46:13;;;;;;;24.03;10.80;;;7.00;99.90;;;;;;5096336;28;20024;-82
2021/01/29 02:49:04;;;;;;;23.07;10.07;;;7.00;99.90;;;;;;5096102;28;20025;-82
2021/01/29 02:51:53;;;;;;;23.47;10.80;;;7.00;99.90;;;;;;5095984;28;20031;-82
2021/01/29 02:54:32;;;;;;;32.47;12.15;;;7.00;99.90;;;;;;5095931;28;20016;-82
2021/01/29 02:57:21;;;;;;;22.85;11.55;;;7.00;99.90;;;;;;5095840;28;20492;-82
2021/01/29 02:59:53;;;;;;;18.00;10.53;;;7.00;99.90;;;;;;5095731;28;20035;-83
2021/01/29 03:02:44;;;;;;;24.00;10.97;;;7.00;99.90;;;;;;5096285;28;20024;-82
2021/01/29 03:05:14;;;;;;;23.50;11.27;;;7.00;99.90;;;;;;5095867;28;20020;-82
2021/01/29 03:08:05;;;;;;;23.70;11.33;;;7.00;99.90;;;;;;5096303;28;20030;-81
2021/01/29 03:10:55;;;;;;;22.60;10.80;;;7.00;99.90;;;;;;5113824;22;20053;-87
2021/01/29 03:13:30;;;;;;;19.23;11.20;;;7.10;99.90;;;;;;5090329;28;20028;-86
2021/01/29 03:16:03;;;;;;;20.00;11.20;;;7.00;99.90;;;;;;5074009;28;20512;-87
2021/01/29 03:18:57;;;;;;;19.03;10.80;;;7.10;99.90;;;;;;5074141;28;20034;-86
2021/01/29 03:21:30;;;;;;;20.13;10.50;;;7.10;99.90;;;;;;5054003;28;20032;-86
2021/01/29 03:24:05;;;;;;;19.33;9.93;;;7.10;99.90;;;;;;5053557;28;20032;-86
2021/01/29 03:26:38;;;;;;;20.97;10.67;;;7.10;99.90;;;;;;5053516;28;20496;-86
2021/01/29 03:29:10;;;;;;;15.23;9.60;;;7.10;99.90;;;;;;5053100;28;20071;-87
2021/01/29 03:31:40;;;;;;;16.90;9.63;;;7.10;99.90;;;;;;5053222;28;20025;-87
2021/01/29 03:34:13;;;;;;;14.80;9.27;;;7.10;99.90;;;;;;5052917;28;20036;-86
2021/01/29 03:36:55;;;;;;;12.77;8.63;;;7.20;99.90;;;;;;5052496;28;20033;-86
2021/01/29 03:39:25;;;;;;;11.37;6.93;;;7.20;99.90;;;;;;5050786;28;20017;-87
2021/01/29 03:42:14;;;;;;;13.53;7.90;;;7.20;99.90;;;;;;5052460;28;20028;-86
2021/01/29 03:44:47;;;;;;;14.38;7.93;;;7.10;99.90;;;;;;5052610;28;20037;-87
2021/01/29 03:47:18;;;;;;;14.70;7.97;;;7.20;99.90;;;;;;5054441;28;20029;-87
2021/01/29 03:49:58;;;;;;;13.60;8.30;;;7.20;99.90;;;;;;5053984;28;20443;-86
2021/01/29 03:52:38;;;;;;;12.83;7.13;;;7.20;99.90;;;;;;5052527;28;20037;-86
2021/01/29 03:55:20;;;;;;;10.77;6.67;;;7.20;99.90;;;;;;5053797;28;20025;-87
2021/01/29 03:58:04;;;;;;;12.23;7.53;;;7.20;99.90;;;;;;5053838;28;20029;-87
2021/01/29 04:00:41;;;;;;;11.83;6.80;;;7.20;99.90;;;;;;5051716;28;20091;-87
2021/01/29 04:03:15;;;;;;;11.50;6.50;;;7.20;99.90;;;;;;5052370;28;20393;-87
2021/01/29 04:05:51;;;;;;;13.87;6.70;;;7.20;99.90;;;;;;5052441;28;20021;-86
2021/01/29 04:08:34;;;;;;;16.93;7.97;;;7.20;99.90;;;;;;5052247;28;20028;-87
2021/01/29 04:11:01;;;;;;;18.17;8.90;;;7.20;99.90;;;;;;5051530;28;20120;-87
2021/01/29 04:13:39;;;;;;;15.57;8.80;;;7.30;99.90;;;;;;5052024;28;20539;-87
2021/01/29 04:16:25;;;;;;;15.50;8.60;;;7.30;99.90;;;;;;5051994;28;20060;-87
2021/01/29 04:18:55;;;;;;;16.80;9.70;;;7.30;99.90;;;;;;5051595;28;20436;-87
2021/01/29 04:21:27;;;;;;;18.23;9.00;;;7.30;99.90;;;;;;5051805;28;20027;-87
2021/01/29 04:24:13;;;;;;;16.47;8.57;;;7.30;99.90;;;;;;5051891;28;20028;-87
2021/01/29 04:26:44;;;;;;;16.90;9.43;;;7.30;99.90;;;;;;5051841;28;20503;-87
2021/01/29 04:29:17;;;;;;;17.67;8.83;;;7.20;99.90;;;;;;5051360;28;20025;-87
2021/01/29 04:31:46;;;;;;;15.50;8.67;;;7.20;99.90;;;;;;5052848;28;20039;-87
2021/01/29 04:34:17;;;;;;;19.55;9.35;;;7.20;99.90;;;;;;5051720;28;20496;-87
2021/01/29 04:36:46;;;;;;;17.87;9.10;;;7.30;99.90;;;;;;5051565;28;20064;-86
2021/01/29 04:39:21;;;;;;;15.55;8.75;;;7.20;99.90;;;;;;5051225;28;20115;-86
2021/01/29 04:42:33;;;;;;;16.47;8.23;;;7.30;99.90;;;;;;5051401;28;20053;-87
2021/01/29 04:45:24;;;;;;;18.70;9.33;;;7.30;99.90;;;;;;4974986;28;20030;-86
2021/01/29 04:47:59;;;;;;;17.23;9.17;;;7.30;99.90;;;;;;4991204;28;20100;-87
2021/01/29 04:50:34;;;;;;;14.77;9.27;;;7.30;99.90;;;;;;5036600;28;20033;-86
2021/01/29 04:53:18;;;;;;;17.83;9.60;;;7.30;99.90;;;;;;5052429;28;20108;-86
2021/01/29 04:56:25;;;;;;;18.63;10.00;;;7.30;99.90;;;;;;5052588;28;20096;-87
2021/01/29 04:59:07;;;;;;;18.20;9.67;;;7.30;99.90;;;;;;5033888;28;20127;-86
2021/01/29 05:01:42;;;;;;;19.97;9.53;;;7.40;99.90;;;;;;5052664;28;20432;-87
2021/01/29 05:04:44;;;;;;;21.20;10.17;;;7.40;99.90;;;;;;5051439;28;20115;-87
2021/01/29 05:07:39;;;;;;;18.33;9.63;;;7.40;99.90;;;;;;5051389;28;20074;-86
2021/01/29 05:10:18;;;;;;;16.03;8.63;;;7.40;99.90;;;;;;5050570;28;20029;-86
2021/01/29 05:12:51;;;;;;;;;;;7.40;99.90;;;;;;5051572;28;20521;-87
2021/01/29 05:15:23;;;;;;;20.07;9.53;;;7.40;99.90;;;;;;5051075;28;20441;-86
2021/01/29 05:17:51;;;;;;;17.63;10.07;;;7.40;99.90;;;;;;5050921;28;20024;-86
2021/01/29 05:20:35;;;;;;;19.43;9.10;;;7.40;99.90;;;;;;5051760;28;20478;-86
2021/01/29 05:23:13;;;;;;;19.10;10.40;;;7.40;99.90;;;;;;5052263;28;20017;-86
2021/01/29 05:26:15;;;;;;;16.63;9.47;;;7.40;99.90;;;;;;5052166;28;20118;-87
2021/01/29 05:29:02;;;;;;;19.10;9.00;;;7.40;99.90;;;;;;5050647;28;20562;-86
2021/01/29 05:31:49;;;;;;;17.43;9.70;;;7.40;99.90;;;;;;5050630;28;20120;-86
2021/01/29 05:34:47;;;;;;;19.03;9.60;;;7.40;99.90;;;;;;5050654;28;20021;-87
2021/01/29 05:37:31;;;;;;;19.03;9.50;;;7.40;99.90;;;;;;5050753;28;20614;-86
2021/01/29 05:40:34;;;;;;;17.50;9.00;;;7.40;99.90;;;;;;5050078;28;20025;-87
2021/01/29 05:43:31;;;;;;;17.13;8.93;;;7.40;99.90;;;;;;5050618;28;20028;-87
2021/01/29 05:46:04;;;;;;;17.40;8.97;;;7.40;99.90;;;;;;5050648;28;20091;-87
2021/01/29 05:48:54;;;;;;;18.17;9.87;;;7.40;99.90;;;;;;5050413;28;20029;-86
2021/01/29 05:51:37;;;;;;;19.20;8.87;;;7.40;99.90;;;;;;5050423;28;20021;-86
2021/01/29 05:54:10;;;;;;;18.53;10.27;;;7.40;99.90;;;;;;5050731;28;20032;-87
2021/01/29 05:57:07;;;;;;;20.57;10.33;;;7.40;99.90;;;;;;5050347;28;20182;-87
2021/01/29 06:00:12;;;;;;;19.90;9.83;;;7.40;99.90;;;;;;5049955;28;20029;-87
2021/01/29 06:02:46;;;;;;;18.00;10.27;;;7.40;99.90;;;;;;5040252;28;20400;-86
2021/01/29 06:05:27;;;;;;;20.87;11.87;;;7.40;99.90;;;;;;5054278;28;20021;-87
2021/01/29 06:08:11;;;;;;;20.87;11.40;;;7.50;99.90;;;;;;5054228;28;20033;-87
2021/01/29 06:11:11;;;;;;;23.30;11.60;;;7.50;99.90;;;;;;5053628;28;20033;-87
2021/01/29 06:13:55;;;;;;;21.37;11.00;;;7.50;99.90;;;;;;5055087;28;20025;-87
2021/01/29 06:16:55;;;;;;;21.17;12.07;;;7.50;99.90;;;;;;5056061;28;20021;-87
2021/01/29 06:19:49;;;;;;;21.27;12.17;;;7.50;99.90;;;;;;5054577;28;20363;-86
2021/01/29 06:22:41;;;;;;;24.67;11.53;;;7.50;99.90;;;;;;5054122;28;20021;-86
2021/01/29 06:25:24;;;;;;;20.83;10.97;;;7.50;99.90;;;;;;5054418;28;20025;-87
2021/01/29 06:28:14;;;;;;;19.73;10.80;;;7.50;99.90;;;;;;5055772;28;20031;-87
2021/01/29 06:31:02;;;;;;;18.27;9.50;;;7.70;99.90;;;;;;5053602;28;20096;-87
2021/01/29 06:33:45;;;;;;;17.30;8.23;;;7.70;99.90;;;;;;5053966;28;20124;-87
2021/01/29 06:36:32;;;;;;;15.63;8.00;;;7.80;99.90;;;;;;5053854;28;20032;-87
2021/01/29 06:39:25;;;;;;;12.53;6.83;;;7.80;99.90;;;;;;5053350;28;20031;-87
2021/01/29 06:42:09;;;;;;;15.80;7.17;;;7.90;99.90;;;;;;5054923;28;20469;-86
2021/01/29 06:45:08;;;;;;;12.47;6.60;;;7.90;99.90;;;;;;5054888;28;20385;-87
2021/01/29 06:47:55;;;;;;;8.07;5.13;;;8.10;99.90;;;;;;5053537;28;20032;-87
2021/01/29 06:50:53;;;;;;;9.53;4.63;;;8.10;99.90;;;;;;5053162;28;20033;-86
2021/01/29 06:53:42;;;;;;;7.83;4.63;;;8.10;99.90;;;;;;5048877;28;20047;-87
2021/01/29 06:56:16;;;;;;;7.93;4.40;;;8.20;99.90;;;;;;5052970;28;20484;-86
2021/01/29 06:59:13;;;;;;;6.67;4.37;;;8.20;99.90;;;;;;5053586;28;20025;-87
2021/01/29 07:01:57;;;;;;;7.53;4.73;;;8.20;99.90;;;;;;5053613;28;20021;-87
2021/01/29 07:04:25;;;;;;;6.83;4.00;;;8.20;99.90;;;;;;5053580;28;20032;-87
2021/01/29 07:07:25;;;;;;;7.97;3.97;;;8.20;99.80;;;;;;5053320;28;20108;-87
2021/01/29 07:09:59;;;;;;;;;;;8.20;99.90;;;;;;5052894;28;20125;-86
2021/01/29 07:13:03;;;;;;;6.87;3.63;;;8.20;99.50;;;;;;5052263;28;19904;-86
2021/01/29 07:15:39;;;;;;;6.70;3.70;;;8.20;99.80;;;;;;5053115;28;20031;-87
2021/01/29 07:18:23;;;;;;;5.40;3.60;;;8.20;99.90;;;;;;5054275;28;20028;-86
2021/01/29 07:21:27;;;;;;;7.03;4.40;;;8.20;99.90;;;;;;5054202;28;20074;-87
2021/01/29 07:24:11;;;;;;;6.10;4.10;;;8.20;99.90;;;;;;5058308;28;20038;-86
2021/01/29 07:26:39;;;;;;;8.53;4.33;;;8.20;99.90;;;;;;5057440;28;20025;-87
2021/01/29 07:29:38;;;;;;;9.80;5.00;;;8.10;99.90;;;;;;5057077;28;20050;-87
2021/01/29 07:32:16;;;;;;;11.07;5.30;;;8.20;99.90;;;;;;5058169;28;20082;-87
2021/01/29 07:34:49;;;;;;;11.03;5.40;;;8.10;99.90;;;;;;5057096;28;20029;-87
2021/01/29 07:37:27;;;;;;;12.13;5.60;;;8.10;99.90;;;;;;5053865;28;20057;-87
2021/01/29 07:40:14;;;;;;;11.00;6.40;;;8.20;99.90;;;;;;5053411;28;20029;-87
2021/01/29 07:43:24;;;;;;;11.70;6.80;;;8.10;99.90;;;;;;5054787;28;20428;-86
2021/01/29 07:46:04;;;;;;;13.40;7.73;;;8.20;99.90;;;;;;5008879;28;20128;-87
2021/01/29 07:48:45;;;;;;;12.17;8.03;;;8.10;99.90;;;;;;5052636;28;20055;-87
2021/01/29 07:51:32;;;;;;;13.13;8.37;;;8.10;99.90;;;;;;5053303;28;20025;-87
2021/01/29 07:54:01;;;;;;;17.03;9.70;;;8.10;99.90;;;;;;5052684;28;20346;-87
2021/01/29 07:56:36;;;;;;;17.05;10.35;;;8.20;99.90;;;;;;5053541;28;20029;-87
2021/01/29 07:59:27;;;;;;;19.10;11.83;;;8.20;99.90;;;;;;5051821;28;20025;-87
2021/01/29 08:02:07;;;;;;;17.63;11.47;;;8.20;99.90;;;;;;5052222;28;20033;-86
2021/01/29 08:05:11;;;;;;;19.07;11.73;;;8.20;99.90;;;;;;5051997;28;20028;-86
2021/01/29 08:07:47;;;;;;;21.83;12.67;;;8.20;99.90;;;;;;5068414;28;20151;-86
2021/01/29 08:10:44;;;;;;;18.03;11.73;;;8.20;99.90;;;;;;5051429;28;20106;-86
2021/01/29 08:13:24;;;;;;;19.30;11.67;;;8.20;99.90;;;;;;5035497;28;20036;-86
2021/01/29 08:16:19;;;;;;;18.07;11.47;;;8.20;99.90;;;;;;5051726;28;20029;-86
2021/01/29 08:19:02;;;;;;;21.73;13.33;;;8.20;99.90;;;;;;5068903;28;20028;-86
2021/01/29 08:21:42;;;;;;;17.40;11.43;;;8.20;99.90;;;;;;5051647;28;20094;-86
2021/01/29 08:24:26;;;;;;;18.37;10.87;;;8.20;99.90;;;;;;5052845;28;20486;-86
2021/01/29 08:27:13;;;;;;;20.13;10.60;;;8.20;99.90;;;;;;5068413;28;20033;-86
2021/01/29 08:29:45;;;;;;;20.73;9.93;;;8.20;99.90;;;;;;5067564;28;20108;-86
2021/01/29 08:32:50;;;;;;;19.07;9.47;;;8.30;99.90;;;;;;5051535;28;20037;-86
2021/01/29 08:35:38;;;;;;;20.70;8.63;;;8.30;99.90;;;;;;5052834;28;20021;-86
2021/01/29 08:38:25;;;;;;;22.43;9.20;;;8.40;99.90;;;;;;5051249;28;20028;-86
2021/01/29 08:41:28;;;;;;;25.47;9.33;;;8.40;99.90;;;;;;5050942;28;20645;-86
2021/01/29 08:44:08;;;;;;;27.70;8.33;;;8.40;99.90;;;;;;5051329;28;20489;-86
2021/01/29 08:47:17;;;;;;;28.67;8.27;;;8.40;99.90;;;;;;5051417;28;20428;-86
2021/01/29 08:50:07;;;;;;;35.10;8.75;;;8.40;99.90;;;;;;5050829;28;20129;-86
2021/01/29 08:52:48;;;;;;;23.73;7.47;;;8.50;99.90;;;;;;5051040;28;20401;-86
2021/01/29 08:56:07;;;;;;;31.50;7.93;;;8.50;99.60;;;;;;5052204;28;20029;-86
2021/01/29 08:58:59;;;;;;;32.20;8.93;;;8.50;99.60;;;;;;4974720;28;20030;-86
2021/01/29 09:01:37;;;;;;;33.37;9.33;;;8.50;99.80;;;;;;4974524;28;20516;-86
2021/01/29 09:04:20;;;;;;;28.53;8.67;;;8.50;99.90;;;;;;5037086;28;20033;-86
2021/01/29 09:06:48;;;;;;;29.37;9.57;;;8.40;99.90;;;;;;5051042;28;20043;-86
2021/01/29 09:09:18;;;;;;;30.33;9.67;;;8.40;99.90;;;;;;5052388;28;20065;-86
2021/01/29 09:11:52;;;;;;;22.83;8.60;;;8.40;99.90;;;;;;5053010;28;20079;-86
2021/01/29 09:14:35;;;;;;;30.27;8.80;;;8.40;99.90;;;;;;5051247;28;20028;-85
2021/01/29 09:17:11;;;;;;;34.87;10.43;;;8.40;99.90;;;;;;5054314;28;20025;-86
2021/01/29 09:19:40;;;;;;;29.90;10.03;;;8.40;99.90;;;;;;5055259;28;20021;-86
2021/01/29 09:22:29;;;;;;;32.00;9.27;;;8.40;99.90;;;;;;5053379;28;20028;-86
2021/01/29 09:25:03;;;;;;;31.90;9.87;;;8.40;99.90;;;;;;5053692;28;20032;-86
2021/01/29 09:27:45;;;;;;;30.70;9.63;;;8.40;99.90;;;;;;5056334;28;20033;-86
2021/01/29 09:30:18;;;;;;;37.37;10.00;;;8.40;99.90;;;;;;5055577;28;20484;-86
2021/01/29 09:32:53;;;;;;;38.47;10.57;;;8.40;99.70;;;;;;5057311;28;20104;-86
2021/01/29 09:35:38;;;;;;;37.00;9.80;;;8.30;99.70;;;;;;5053599;28;20021;-86
2021/01/29 09:38:09;;;;;;;38.17;10.20;;;8.30;99.80;;;;;;5058591;28;20032;-86
2021/01/29 09:40:45;;;;;;;33.03;9.33;;;8.30;99.60;;;;;;5058675;28;20412;-86
2021/01/29 09:43:38;;;;;;;41.63;9.40;;;8.40;99.40;;;;;;5060048;28;20024;-86
2021/01/29 09:46:04;;;;;;;40.20;10.27;;;8.30;99.60;;;;;;5057924;28;20025;-86
2021/01/29 09:48:31;;;;;;;33.50;9.63;;;8.30;99.60;;;;;;5057901;28;20021;-86
2021/01/29 09:51:28;;;;;;;34.10;8.97;;;8.20;99.50;;;;;;5057521;28;20033;-86
2021/01/29 09:54:13;;;;;;;33.47;9.30;;;8.30;99.30;;;;;;5051520;28;20025;-86
2021/01/29 09:56:43;;;;;;;35.37;9.43;;;8.30;99.50;;;;;;5057482;28;20028;-86
2021/01/29 09:59:24;;;;;;;38.53;9.60;;;8.20;99.30;;;;;;5057447;28;20029;-86
2021/01/29 10:02:17;;;;;;;39.87;9.20;;;8.20;99.40;;;;;;5057918;28;20017;-86
2021/01/29 10:04:52;;;;;;;37.60;10.43;;;8.20;99.40;;;;;;5058349;28;20025;-86
2021/01/29 10:07:22;;;;;;;39.57;8.73;;;8.20;99.50;;;;;;5059589;28;20059;-86
2021/01/29 10:10:01;;;;;;;37.60;9.57;;;8.20;99.40;;;;;;5059258;28;20029;-85
2021/01/29 10:12:30;;;;;;;32.10;9.18;;;8.30;99.10;;;;;;5057224;28;20112;-86
2021/01/29 10:15:19;;;;;;;39.95;9.20;;;8.20;98.80;;;;;;5057232;28;20059;-86
2021/01/29 10:17:48;;;;;;;28.90;6.45;;;8.30;98.50;;;;;;5058570;28;20056;-85
2021/01/29 10:20:23;;;;;;;37.33;8.77;;;8.40;98.40;;;;;;5057155;28;20037;-86
2021/01/29 10:23:31;;;;;;;32.37;8.03;;;8.30;98.00;;;;;;5057854;28;20465;-86
2021/01/29 10:26:32;;;;;;;28.50;7.87;;;8.40;97.90;;;;;;5030969;28;20060;-86
2021/01/29 10:29:08;;;;;;;29.20;8.07;;;8.50;97.70;;;;;;5058607;28;20025;-86
2021/01/29 10:31:52;;;;;;;25.70;7.33;;;8.60;96.90;;;;;;5057755;28;20078;-86
2021/01/29 10:34:56;;;;;;;27.23;7.23;;;8.60;96.80;;;;;;5059224;28;20421;-87
2021/01/29 10:38:17;;;;;;;34.50;8.27;;;8.60;96.90;;;;;;5060087;28;20033;-86
2021/01/29 10:41:05;;;;;;;32.53;8.47;;;8.60;96.90;;;;;;5025410;28;20112;-86
2021/01/29 10:43:42;;;;;;;33.63;7.60;;;8.70;97.10;;;;;;5059023;28;20029;-86
2021/01/29 10:46:08;;;;;;;35.60;7.33;;;8.70;96.80;;;;;;5059087;28;20135;-85
2021/01/29 10:48:51;;;;;;;36.37;7.40;;;8.80;96.60;;;;;;5059943;28;20009;-86
2021/01/29 10:51:35;;;;;;;37.17;8.50;;;8.80;96.30;;;;;;5059667;28;20615;-86
2021/01/29 10:54:03;;;;;;;25.60;7.33;;;8.80;96.40;;;;;;5058550;28;20021;-85
2021/01/29 10:56:44;;;;;;;31.77;7.17;;;8.70;96.50;;;;;;5056419;28;20040;-86
2021/01/29 10:59:45;;;;;;;29.20;7.63;;;8.80;95.90;;;;;;5053621;28;20053;-86
2021/01/29 11:02:20;;;;;;;29.27;7.27;;;8.80;96.00;;;;;;5053641;28;20025;-86
2021/01/29 11:04:56;;;;;;;29.23;6.97;;;8.80;96.10;;;;;;5053459;28;20147;-86
2021/01/29 11:07:30;;;;;;;30.10;7.13;;;8.80;96.00;;;;;;5053749;28;20028;-86
2021/01/29 11:10:06;;;;;;;27.30;6.67;;;8.80;95.80;;;;;;5053666;28;20168;-86
2021/01/29 11:12:38;;;;;;;31.43;7.03;;;8.80;95.80;;;;;;5053183;28;20029;-86
2021/01/29 11:15:23;;;;;;;30.13;6.33;;;8.80;95.60;;;;;;5053361;28;20374;-86
2021/01/29 11:18:09;;;;;;;30.87;7.17;;;8.90;95.40;;;;;;5052973;28;20049;-86
2021/01/29 11:20:38;;;;;;;31.43;6.57;;;9.00;95.50;;;;;;5054043;28;20021;-86
2021/01/29 11:23:22;;;;;;;35.65;7.18;;;9.00;95.10;;;;;;5053735;28;20066;-85
2021/01/29 11:26:09;;;;;;;30.17;6.47;;;9.00;95.30;;;;;;5053275;28;20021;-86
2021/01/29 11:28:51;;;;;;;29.13;6.07;;;9.00;95.20;;;;;;5053183;28;20036;-86
2021/01/29 11:31:37;;;;;;;29.33;6.53;;;9.10;94.60;;;;;;5054301;28;20036;-85
2021/01/29 11:34:04;;;;;;;24.00;5.80;;;9.10;94.70;;;;;;5052872;28;20040;-86
2021/01/29 11:36:34;;;;;;;28.57;5.93;;;9.10;94.50;;;;;;5052633;28;20029;-85
2021/01/29 11:39:13;;;;;;;28.67;5.90;;;9.20;94.30;;;;;;5052751;28;20027;-85
2021/01/29 11:41:58;;;;;;;24.42;5.82;;;9.20;93.90;;;;;;5052540;28;20021;-85
2021/01/29 11:45:02;;;;;;;28.17;6.03;;;9.20;94.10;;;;;;5052897;28;20389;-86
2021/01/29 11:48:08;;;;;;;30.57;6.97;;;9.20;94.10;;;;;;5041630;28;20056;-86
2021/01/29 11:51:31;;;;;;;28.37;6.37;;;9.20;94.40;;;;;;5052434;28;20025;-86
2021/01/29 11:54:56;;;;;;;23.33;6.27;;;9.10;94.50;;;;;;5048026;28;20393;-86
2021/01/29 11:58:01;;;;;;;28.90;7.10;;;9.20;94.40;;;;;;5051705;28;20047;-86
2021/01/29 12:00:38;;;;;;;27.07;6.53;;;9.10;94.50;;;;;;4975527;28;20026;-85
2021/01/29 12:03:22;;;;;;;29.90;6.90;;;9.10;94.70;;;;;;4993606;28;20026;-86
2021/01/29 12:06:05;;;;;;;30.40;8.10;;;9.10;94.90;;;;;;5042275;28;20377;-86
2021/01/29 12:08:38;;;;;;;24.13;7.17;;;9.00;95.50;;;;;;5052562;28;20147;-86
2021/01/29 12:11:13;;;;;;;29.23;7.37;;;9.00;95.90;;;;;;5052217;28;20052;-85
2021/01/29 12:14:04;;;;;;;26.63;7.50;;;8.90;95.70;;;;;;5052284;28;20029;-86
2021/01/29 12:16:33;;;;;;;29.03;7.73;;;8.90;95.90;;;;;;5053614;28;20390;-85
2021/01/29 12:19:00;;;;;;;31.83;7.95;;;8.90;95.70;;;;;;5051789;28;20025;-86
2021/01/29 12:21:34;;;;;;;38.53;8.40;;;9.00;96.00;;;;;;5051919;28;20298;-85
2021/01/29 12:24:09;;;;;;;29.23;7.17;;;8.90;96.00;;;;;;5053208;28;20024;-85
2021/01/29 12:26:40;;;;;;;30.53;7.27;;;8.90;95.90;;;;;;5051774;28;20025;-85
2021/01/29 12:29:09;;;;;;;32.47;7.17;;;9.00;95.50;;;;;;5053013;28;20032;-86
2021/01/29 12:31:50;;;;;;;26.90;6.73;;;9.00;95.50;;;;;;5052002;28;20060;-86
2021/01/29 12:34:39;;;;;;;30.10;6.67;;;9.00;95.70;;;;;;5051853;28;20032;-86
2021/01/29 12:37:11;;;;;;;23.73;6.17;;;9.00;95.70;;;;;;5051679;28;20029;-85
2021/01/29 12:40:10;;;;;;;29.70;6.77;;;9.10;95.50;;;;;;5051592;28;20021;-86
2021/01/29 12:42:39;;;;;;;24.77;7.32;;;9.10;95.30;;;;;;5051809;28;20025;-86
2021/01/29 12:45:23;;;;;;;26.25;6.60;;;9.10;95.40;;;;;;5052920;28;20021;-86
2021/01/29 12:47:57;;;;;;;24.97;6.20;;;9.20;95.20;;;;;;5053212;28;20032;-86
2021/01/29 12:50:52;;;;;;;24.87;5.43;;;9.20;95.10;;;;;;5053283;28;20032;-86
2021/01/29 12:53:23;;;;;;;23.00;4.80;;;9.30;94.40;;;;;;5052263;28;20097;-85
2021/01/29 12:56:18;;;;;;;21.90;5.17;;;9.30;93.80;;;;;;5051955;28;20025;-86
2021/01/29 12:59:01;;;;;;;23.23;5.00;;;9.40;93.10;;;;;;5052082;28;20029;-86
2021/01/29 13:01:36;;;;;;;22.27;4.77;;;9.40;93.40;;;;;;5051047;28;20028;-86
2021/01/29 13:04:13;;;;;;;22.90;5.60;;;9.50;93.40;;;;;;5052260;28;20025;-86
2021/01/29 13:06:45;;;;;;;24.70;5.20;;;9.40;93.90;;;;;;5052175;28;20535;-86
2021/01/29 13:09:29;;;;;;;22.90;5.97;;;9.40;94.00;;;;;;5054195;28;20029;-86
2021/01/29 13:12:07;;;;;;;20.33;4.40;;;9.40;93.60;;;;;;5052921;28;20021;-86
2021/01/29 13:14:57;;;;;;;21.88;4.85;;;9.40;93.40;;;;;;5053385;28;20025;-86
2021/01/29 13:17:26;;;;;;;31.37;6.37;;;9.40;93.30;;;;;;5051055;28;20493;-86
2021/01/29 13:20:11;;;;;;;22.42;5.95;;;9.40;93.40;;;;;;5051036;28;20111;-86
2021/01/29 13:22:46;;;;;;;27.20;6.17;;;9.40;93.60;;;;;;5051220;28;20051;-86
2021/01/29 13:25:12;;;;;;;24.23;5.90;;;9.40;94.00;;;;;;5051078;28;20017;-86
2021/01/29 13:28:02;;;;;;;23.33;4.93;;;9.40;93.90;;;;;;5051116;28;20079;-86
2021/01/29 13:30:41;;;;;;;23.17;5.70;;;9.40;93.80;;;;;;5051045;28;20021;-85
2021/01/29 13:33:26;;;;;;;22.65;6.95;;;9.40;93.90;;;;;;5051155;28;20025;-85
2021/01/29 13:36:10;;;;;;;21.87;4.93;;;9.50;92.10;;;;;;5051075;28;20029;-86
2021/01/29 13:38:38;;;;;;;20.17;4.40;;;9.60;92.30;;;;;;5052065;28;20025;-86
2021/01/29 13:41:16;;;;;;;21.47;6.17;;;9.50;92.50;;;;;;5050897;28;20104;-85
2021/01/29 13:43:44;;;;;;;21.73;6.87;;;9.40;94.30;;;;;;5052133;28;20031;-85
2021/01/29 13:46:32;;;;;;;26.70;7.90;;;9.20;95.90;;;;;;5050571;28;20383;-86
2021/01/29 13:49:26;;;;;;;21.03;6.27;;;9.00;96.50;;;;;;5050721;28;20036;-86
2021/01/29 13:51:52;;;;;;;19.07;5.23;;;8.90;96.70;;;;;;5050648;28;20028;-86